Time;durP1;ratioP1;P1;durP2;ratioP2;P2;SDS_P1;SDS_P2;PMS_P1;PMS_P2;Temp;Humidity;BMP_temperature;BMP_pressure;BME280_temperature;BME280_humidity;BME280_pressure;Samples;Min_cycle;Max_cycle;Signal;HPM_P1;HPM_P2
2024/01/28 00:00:19;;;;;;;25.08;9.90;;;3.00;99.90;;;;;;5138795;27;20048;-64
2024/01/28 00:02:45;;;;;;;30.08;10.32;;;3.00;99.90;;;;;;5125486;27;20051;-64
2024/01/28 00:05:12;;;;;;;28.02;10.57;;;2.90;99.90;;;;;;5139176;27;20039;-63
2024/01/28 00:07:39;;;;;;;30.80;10.50;;;3.00;99.90;;;;;;5135491;27;20101;-64
2024/01/28 00:10:06;;;;;;;28.30;11.27;;;3.00;99.90;;;;;;5138993;27;20038;-63
2024/01/28 00:12:32;;;;;;;22.08;10.30;;;3.00;99.90;;;;;;5127794;27;20043;-64
2024/01/28 00:14:59;;;;;;;23.20;9.07;;;2.90;99.90;;;;;;5134481;27;20652;-64
2024/01/28 00:17:24;;;;;;;33.88;11.80;;;2.90;99.90;;;;;;5134651;27;20134;-64
2024/01/28 00:19:50;;;;;;;20.00;10.25;;;2.80;99.90;;;;;;5118126;27;20130;-64
2024/01/28 00:22:16;;;;;;;22.90;10.38;;;2.90;99.90;;;;;;5135351;27;20371;-64
2024/01/28 00:24:42;;;;;;;24.75;9.43;;;2.80;99.90;;;;;;5142121;27;20076;-63
2024/01/28 00:27:07;;;;;;;26.58;11.65;;;2.80;99.90;;;;;;5136860;27;20034;-64
2024/01/28 00:29:33;;;;;;;22.08;9.85;;;2.90;99.90;;;;;;5134798;27;20042;-63
2024/01/28 00:31:59;;;;;;;21.27;9.40;;;2.90;99.90;;;;;;5141263;27;20684;-64
2024/01/28 00:34:26;;;;;;;24.85;9.98;;;2.80;99.90;;;;;;5137399;27;20073;-63
2024/01/28 00:36:51;;;;;;;29.88;10.10;;;2.80;99.90;;;;;;5137362;27;20123;-63
2024/01/28 00:39:18;;;;;;;23.23;9.90;;;2.80;99.90;;;;;;5133462;27;20142;-64
2024/01/28 00:41:43;;;;;;;27.65;10.80;;;2.80;99.90;;;;;;5138295;27;20629;-64
2024/01/28 00:44:09;;;;;;;19.85;9.43;;;2.80;99.90;;;;;;5138845;27;20031;-63
2024/01/28 00:46:35;;;;;;;20.25;9.60;;;2.70;99.90;;;;;;5139582;27;20062;-64
2024/01/28 00:49:03;;;;;;;23.08;9.77;;;2.70;99.90;;;;;;5141999;27;20050;-63
2024/01/28 00:51:31;;;;;;;21.50;8.40;;;2.70;99.90;;;;;;5144816;27;20043;-64
2024/01/28 00:53:57;;;;;;;27.50;9.68;;;2.70;99.90;;;;;;5140008;27;20034;-63
2024/01/28 00:56:23;;;;;;;16.45;8.85;;;2.70;99.90;;;;;;5138673;27;20349;-64
2024/01/28 00:58:49;;;;;;;23.60;8.63;;;2.80;99.90;;;;;;5135755;27;20582;-63
2024/01/28 01:01:16;;;;;;;24.33;10.05;;;2.90;99.90;;;;;;5144436;27;20633;-64
2024/01/28 01:03:42;;;;;;;21.55;8.10;;;2.80;99.90;;;;;;5130632;27;20047;-63
2024/01/28 01:06:08;;;;;;;19.52;8.88;;;2.90;99.90;;;;;;5137095;27;20039;-63
2024/01/28 01:08:33;;;;;;;19.50;8.35;;;2.90;99.90;;;;;;5138874;27;20035;-63
2024/01/28 01:11:03;;;;;;;25.20;8.55;;;2.80;99.90;;;;;;5144577;27;20123;-63
2024/01/28 01:13:33;;;;;;;17.65;7.97;;;2.90;99.90;;;;;;5143158;27;20506;-64
2024/01/28 01:15:59;;;;;;;19.75;8.98;;;2.80;99.90;;;;;;5141836;27;20038;-64
2024/01/28 01:18:25;;;;;;;22.05;9.27;;;2.90;99.90;;;;;;5143264;27;20525;-64
2024/01/28 01:20:51;;;;;;;20.48;7.63;;;2.80;99.90;;;;;;5146365;27;20038;-63
2024/01/28 01:23:17;;;;;;;18.90;7.75;;;2.90;99.90;;;;;;5144725;27;20052;-63
2024/01/28 01:25:43;;;;;;;25.23;8.55;;;2.80;99.90;;;;;;5145027;27;20784;-63
2024/01/28 01:28:08;;;;;;;24.45;8.50;;;2.80;99.90;;;;;;5141595;27;20063;-63
2024/01/28 01:30:34;;;;;;;21.33;9.13;;;2.80;99.90;;;;;;5144480;27;20585;-63
2024/01/28 01:33:00;;;;;;;23.27;8.18;;;2.90;99.90;;;;;;5137574;27;20038;-63
2024/01/28 01:35:29;;;;;;;20.33;8.00;;;2.90;99.90;;;;;;5145679;27;20030;-63
2024/01/28 01:37:54;;;;;;;27.13;8.52;;;2.90;99.90;;;;;;5143255;27;20031;-62
2024/01/28 01:40:20;;;;;;;22.60;8.43;;;2.90;99.90;;;;;;5139471;27;20109;-63
2024/01/28 01:42:47;;;;;;;19.60;8.95;;;2.80;99.90;;;;;;5140863;27;20035;-64
2024/01/28 01:45:13;;;;;;;15.07;7.80;;;2.80;99.90;;;;;;5139620;27;20042;-63
2024/01/28 01:47:40;;;;;;;24.33;8.43;;;2.90;99.90;;;;;;5148216;27;20045;-63
2024/01/28 01:50:10;;;;;;;18.13;7.88;;;2.80;99.90;;;;;;5143644;27;20041;-64
2024/01/28 01:52:42;;;;;;;18.98;8.43;;;2.80;99.90;;;;;;5144346;27;20083;-63
2024/01/28 01:55:09;;;;;;;17.88;7.85;;;2.80;99.90;;;;;;5131895;27;20034;-62
2024/01/28 01:57:37;;;;;;;23.40;8.40;;;2.80;99.90;;;;;;5142311;27;20414;-64
2024/01/28 02:00:04;;;;;;;22.30;8.35;;;2.80;99.90;;;;;;5142103;27;20030;-63
2024/01/28 02:02:31;;;;;;;16.90;7.97;;;2.90;99.90;;;;;;5137577;27;20099;-61
2024/01/28 02:04:57;;;;;;;21.45;8.23;;;2.90;99.90;;;;;;5136284;27;20045;-63
2024/01/28 02:07:24;;;;;;;26.75;8.85;;;2.90;99.90;;;;;;5136171;27;20153;-63
2024/01/28 02:09:50;;;;;;;17.42;7.70;;;2.90;99.90;;;;;;5134683;27;20039;-63
2024/01/28 02:12:16;;;;;;;18.33;8.10;;;2.90;99.90;;;;;;5139642;27;20031;-63
2024/01/28 02:14:42;;;;;;;18.38;7.72;;;2.90;99.90;;;;;;5140972;27;20062;-63
2024/01/28 02:17:07;;;;;;;21.48;7.97;;;2.90;99.90;;;;;;5125227;27;20107;-63
2024/01/28 02:19:33;;;;;;;17.48;8.23;;;2.90;99.90;;;;;;5139934;27;20049;-65
2024/01/28 02:21:59;;;;;;;16.10;7.63;;;2.90;99.90;;;;;;5130690;27;20978;-64
2024/01/28 02:24:25;;;;;;;20.25;8.30;;;3.00;99.90;;;;;;5140731;27;20067;-63
2024/01/28 02:26:50;;;;;;;20.98;8.77;;;3.00;99.90;;;;;;5106844;27;20046;-63
2024/01/28 02:29:16;;;;;;;16.83;7.88;;;3.00;99.90;;;;;;5138369;27;20034;-63
2024/01/28 02:31:45;;;;;;;26.05;8.77;;;3.00;99.90;;;;;;5137522;27;20099;-64
2024/01/28 02:34:11;;;;;;;18.20;8.32;;;3.10;99.90;;;;;;5138933;27;20038;-64
2024/01/28 02:36:37;;;;;;;18.67;8.00;;;3.10;99.90;;;;;;5141253;27;20043;-63
2024/01/28 02:39:04;;;;;;;20.02;8.45;;;3.10;99.90;;;;;;5129154;27;20327;-63
2024/01/28 02:41:29;;;;;;;19.92;8.50;;;3.00;99.90;;;;;;5137219;27;20035;-63
2024/01/28 02:43:55;;;;;;;18.63;8.40;;;3.10;99.90;;;;;;5141239;27;20476;-63
2024/01/28 02:46:21;;;;;;;21.55;8.25;;;3.10;99.90;;;;;;5138953;27;20149;-63
2024/01/28 02:48:47;;;;;;;16.40;9.15;;;3.00;99.90;;;;;;5140210;27;20517;-63
2024/01/28 02:51:12;;;;;;;16.02;8.70;;;3.00;99.90;;;;;;5133732;27;20031;-63
2024/01/28 02:53:38;;;;;;;25.00;8.63;;;3.00;99.90;;;;;;5138685;27;21079;-64
2024/01/28 02:56:05;;;;;;;20.20;8.70;;;3.10;99.90;;;;;;5136253;27;20042;-63
2024/01/28 02:58:31;;;;;;;22.48;9.45;;;3.10;99.90;;;;;;5136924;27;20125;-63
2024/01/28 03:00:57;;;;;;;22.38;9.15;;;3.10;99.90;;;;;;5120207;27;20047;-63
2024/01/28 03:03:23;;;;;;;24.92;9.07;;;3.10;99.90;;;;;;5134873;27;20123;-63
2024/01/28 03:05:49;;;;;;;22.38;10.30;;;3.10;99.90;;;;;;5133358;27;20036;-63
2024/01/28 03:08:14;;;;;;;21.13;10.25;;;3.10;99.90;;;;;;5139319;27;20158;-64
2024/01/28 03:10:40;;;;;;;29.25;9.48;;;3.10;99.90;;;;;;5136447;27;20043;-63
2024/01/28 03:13:06;;;;;;;24.50;9.18;;;3.10;99.90;;;;;;5140962;27;20086;-63
2024/01/28 03:15:32;;;;;;;19.38;9.50;;;3.20;99.90;;;;;;5118696;27;20342;-64
2024/01/28 03:17:58;;;;;;;28.27;9.80;;;3.10;99.90;;;;;;5141377;27;20039;-61
2024/01/28 03:20:27;;;;;;;23.15;9.60;;;3.20;99.90;;;;;;5143540;27;20415;-61
2024/01/28 03:22:53;;;;;;;19.52;9.00;;;3.20;99.90;;;;;;5137723;27;20046;-61
2024/01/28 03:25:18;;;;;;;20.92;9.13;;;3.20;99.90;;;;;;5141197;27;20039;-61
2024/01/28 03:27:44;;;;;;;25.05;9.88;;;3.20;99.90;;;;;;5137986;27;20042;-61
2024/01/28 03:30:10;;;;;;;26.08;9.85;;;3.30;99.90;;;;;;5144537;27;20031;-62
2024/01/28 03:32:36;;;;;;;25.42;8.80;;;3.20;99.90;;;;;;5137753;27;20122;-61
2024/01/28 03:35:02;;;;;;;19.73;8.30;;;3.20;99.90;;;;;;5141577;27;20042;-63
2024/01/28 03:37:28;;;;;;;21.25;9.35;;;3.20;99.90;;;;;;5139293;27;20051;-63
2024/01/28 03:39:54;;;;;;;23.77;9.80;;;3.20;99.90;;;;;;5121989;27;20711;-64
2024/01/28 03:42:22;;;;;;;28.73;8.70;;;3.20;99.90;;;;;;5134818;27;20106;-64
2024/01/28 03:44:47;;;;;;;17.23;9.23;;;3.20;99.90;;;;;;5117872;27;20042;-63
2024/01/28 03:47:13;;;;;;;25.65;9.68;;;3.10;99.90;;;;;;5138562;27;20057;-62
2024/01/28 03:49:39;;;;;;;22.00;9.90;;;3.20;99.90;;;;;;5136532;27;20030;-61
2024/01/28 03:52:05;;;;;;;19.20;9.00;;;3.20;99.90;;;;;;5141358;27;20039;-62
2024/01/28 03:54:31;;;;;;;21.52;9.13;;;3.20;99.90;;;;;;5139721;27;20038;-64
2024/01/28 03:56:57;;;;;;;16.98;8.45;;;3.20;99.90;;;;;;5137573;27;20108;-64
2024/01/28 03:59:23;;;;;;;18.65;8.38;;;3.10;99.90;;;;;;5115584;27;20126;-62
2024/01/28 04:01:49;;;;;;;23.90;10.05;;;3.10;99.90;;;;;;5141073;27;20545;-64
2024/01/28 04:04:15;;;;;;;24.10;9.10;;;3.10;99.90;;;;;;5132458;27;20092;-63
2024/01/28 04:06:43;;;;;;;20.30;8.95;;;3.10;99.90;;;;;;5138447;27;20038;-63
2024/01/28 04:09:10;;;;;;;28.33;9.15;;;3.00;99.90;;;;;;5138243;27;20038;-63
2024/01/28 04:11:36;;;;;;;19.00;9.23;;;3.00;99.90;;;;;;5136648;27;20463;-61
2024/01/28 04:14:02;;;;;;;22.45;9.40;;;3.00;99.90;;;;;;5132142;27;20106;-62
2024/01/28 04:16:28;;;;;;;18.65;8.30;;;3.10;99.90;;;;;;5139473;27;20058;-63
2024/01/28 04:18:54;;;;;;;18.90;8.27;;;3.10;99.90;;;;;;5135109;27;20069;-62
2024/01/28 04:21:23;;;;;;;20.80;8.85;;;3.00;99.90;;;;;;5137353;27;20046;-62
2024/01/28 04:23:51;;;;;;;19.42;8.63;;;3.00;99.90;;;;;;5141176;27;20074;-62
2024/01/28 04:26:18;;;;;;;19.80;7.97;;;3.00;99.90;;;;;;5142740;27;20530;-62
2024/01/28 04:28:45;;;;;;;15.68;8.00;;;3.10;99.90;;;;;;5138522;27;20488;-62
2024/01/28 04:31:12;;;;;;;20.02;9.18;;;3.10;99.90;;;;;;5136671;27;20657;-62
2024/01/28 04:33:38;;;;;;;18.27;8.95;;;3.10;99.90;;;;;;5136330;27;20497;-62
2024/01/28 04:36:05;;;;;;;22.55;8.95;;;3.30;99.90;;;;;;5143028;27;20329;-62
2024/01/28 04:38:31;;;;;;;20.05;8.77;;;3.10;99.90;;;;;;5137914;27;20054;-62
2024/01/28 04:40:57;;;;;;;19.27;8.73;;;3.10;99.90;;;;;;5123068;27;20042;-62
2024/01/28 04:43:23;;;;;;;22.55;9.40;;;3.10;99.90;;;;;;5141900;27;20041;-62
2024/01/28 04:45:48;;;;;;;19.05;8.15;;;3.00;99.90;;;;;;5133733;27;20042;-62
2024/01/28 04:48:14;;;;;;;19.80;8.98;;;3.00;99.90;;;;;;5139193;27;20031;-62
2024/01/28 04:50:40;;;;;;;17.90;8.45;;;3.00;99.90;;;;;;5139758;27;20113;-62
2024/01/28 04:53:05;;;;;;;19.33;7.93;;;3.00;99.90;;;;;;5142351;27;20035;-62
2024/01/28 04:55:31;;;;;;;19.52;8.18;;;3.00;99.90;;;;;;5136026;27;20103;-62
2024/01/28 04:57:57;;;;;;;18.40;8.20;;;3.00;99.90;;;;;;5143474;27;20074;-62
2024/01/28 05:00:23;;;;;;;21.30;7.43;;;3.00;99.90;;;;;;5138629;27;20562;-62
2024/01/28 05:02:49;;;;;;;19.60;8.23;;;2.90;99.90;;;;;;5140621;27;20038;-62
2024/01/28 05:05:14;;;;;;;17.40;7.32;;;2.90;99.90;;;;;;5145463;27;20429;-62
2024/01/28 05:07:40;;;;;;;15.65;8.23;;;2.90;99.90;;;;;;5142359;27;20214;-62
2024/01/28 05:10:08;;;;;;;18.50;8.88;;;2.90;99.90;;;;;;5143992;27;20039;-62
2024/01/28 05:12:34;;;;;;;17.83;8.17;;;2.90;99.90;;;;;;5124094;27;20034;-62
2024/01/28 05:15:01;;;;;;;14.50;7.35;;;2.90;99.90;;;;;;5143702;27;20035;-62
2024/01/28 05:17:27;;;;;;;24.48;9.05;;;2.80;99.90;;;;;;5141974;27;20122;-62
2024/01/28 05:19:52;;;;;;;17.75;7.40;;;2.90;99.90;;;;;;5144543;27;20113;-61
2024/01/28 05:22:19;;;;;;;23.15;8.23;;;2.90;99.90;;;;;;5144802;27;20066;-62
2024/01/28 05:24:49;;;;;;;19.23;7.60;;;2.90;99.90;;;;;;5139160;27;20042;-62
2024/01/28 05:27:15;;;;;;;21.02;9.00;;;2.90;99.90;;;;;;5136829;27;20047;-62
2024/01/28 05:29:41;;;;;;;20.35;8.88;;;2.80;99.90;;;;;;5141590;27;20031;-62
2024/01/28 05:32:08;;;;;;;24.65;8.25;;;2.80;99.90;;;;;;5142746;27;20043;-62
2024/01/28 05:34:34;;;;;;;19.90;8.73;;;2.80;99.90;;;;;;5140677;27;20035;-62
2024/01/28 05:37:00;;;;;;;18.92;7.65;;;2.80;99.90;;;;;;5136426;27;20042;-62
2024/01/28 05:39:25;;;;;;;17.13;7.80;;;2.80;99.90;;;;;;5145550;27;20039;-62
2024/01/28 05:41:51;;;;;;;21.30;8.75;;;2.80;99.90;;;;;;5141791;27;20421;-62
2024/01/28 05:44:18;;;;;;;20.83;9.38;;;2.70;99.90;;;;;;5141846;27;20097;-63
2024/01/28 05:46:44;;;;;;;19.25;8.93;;;2.70;99.90;;;;;;5132847;27;20035;-62
2024/01/28 05:49:11;;;;;;;20.33;8.65;;;2.60;99.90;;;;;;5143236;27;20040;-63
2024/01/28 05:51:39;;;;;;;20.33;8.20;;;2.60;99.90;;;;;;5141404;27;20050;-63
2024/01/28 05:54:07;;;;;;;20.67;8.20;;;2.60;99.90;;;;;;5137222;27;20042;-63
2024/01/28 05:56:33;;;;;;;15.98;7.75;;;2.60;99.90;;;;;;5131525;27;20665;-62
2024/01/28 05:58:59;;;;;;;24.42;9.48;;;2.60;99.90;;;;;;5144319;27;20041;-62
2024/01/28 06:01:24;;;;;;;20.67;9.23;;;2.60;99.90;;;;;;5138487;27;20039;-62
2024/01/28 06:03:50;;;;;;;17.83;8.70;;;2.50;99.90;;;;;;5096803;27;20039;-62
2024/01/28 06:06:16;;;;;;;17.73;9.13;;;2.80;99.90;;;;;;5135815;27;20042;-63
2024/01/28 06:08:42;;;;;;;16.90;8.68;;;2.60;99.90;;;;;;5137837;27;20043;-62
2024/01/28 06:11:09;;;;;;;21.48;8.32;;;2.50;99.90;;;;;;5141086;27;20103;-62
2024/01/28 06:13:36;;;;;;;18.63;8.93;;;2.50;99.90;;;;;;5125792;27;20045;-62
2024/01/28 06:16:02;;;;;;;23.65;8.40;;;2.50;99.90;;;;;;5141814;27;20128;-63
2024/01/28 06:18:28;;;;;;;17.02;8.52;;;2.40;99.90;;;;;;5137017;27;20027;-62
2024/01/28 06:20:54;;;;;;;13.23;8.52;;;2.40;99.90;;;;;;5118550;27;20158;-62
2024/01/28 06:23:20;;;;;;;17.48;7.93;;;2.40;99.90;;;;;;5129810;27;20042;-62
2024/01/28 06:25:47;;;;;;;19.65;8.55;;;2.30;99.90;;;;;;5131035;27;20126;-63
2024/01/28 06:28:12;;;;;;;17.98;8.27;;;2.30;99.90;;;;;;5131334;27;20526;-63
2024/01/28 06:30:38;;;;;;;16.13;8.18;;;2.30;99.90;;;;;;5139982;27;20929;-63
2024/01/28 06:33:04;;;;;;;16.25;7.53;;;2.30;99.90;;;;;;5118530;27;20042;-62
2024/01/28 06:35:30;;;;;;;17.23;7.38;;;2.30;99.90;;;;;;5134250;27;20058;-63
2024/01/28 06:37:56;;;;;;;21.33;7.80;;;2.30;99.90;;;;;;5138166;27;20034;-63
2024/01/28 06:40:23;;;;;;;17.67;8.48;;;2.30;99.90;;;;;;5137503;27;20086;-63
2024/01/28 06:42:48;;;;;;;17.67;8.48;;;2.30;99.90;;;;;;5140351;27;20042;-63
2024/01/28 06:45:14;;;;;;;16.88;8.25;;;2.20;99.90;;;;;;5141403;27;20078;-62
2024/01/28 06:47:40;;;;;;;18.00;8.05;;;2.70;99.90;;;;;;5139522;27;20092;-62
2024/01/28 06:50:06;;;;;;;15.38;7.30;;;2.20;99.90;;;;;;5138489;27;20035;-62
2024/01/28 06:52:32;;;;;;;19.80;7.78;;;2.20;99.90;;;;;;5139398;27;20073;-62
2024/01/28 06:54:58;;;;;;;17.15;7.70;;;2.20;99.90;;;;;;5135468;27;20479;-62
2024/01/28 06:57:24;;;;;;;15.88;8.02;;;2.20;99.90;;;;;;5139797;27;20423;-63
2024/01/28 06:59:50;;;;;;;17.83;7.78;;;2.20;99.90;;;;;;5138750;27;20031;-62
2024/01/28 07:02:16;;;;;;;20.08;7.30;;;2.20;99.90;;;;;;5139250;27;20042;-62
2024/01/28 07:04:42;;;;;;;19.65;7.72;;;2.20;99.90;;;;;;5137951;27;20121;-62
2024/01/28 07:07:07;;;;;;;15.48;7.30;;;2.20;99.90;;;;;;5139787;27;20037;-62
2024/01/28 07:09:33;;;;;;;19.60;7.43;;;2.20;99.90;;;;;;5137771;27;20035;-62
2024/01/28 07:11:59;;;;;;;18.75;8.07;;;2.20;99.90;;;;;;5119782;27;20053;-62
2024/01/28 07:14:25;;;;;;;19.05;8.18;;;2.20;99.90;;;;;;5118190;27;20414;-62
2024/01/28 07:16:51;;;;;;;15.43;7.30;;;2.10;99.90;;;;;;5139622;27;20066;-62
2024/01/28 07:19:17;;;;;;;14.07;7.65;;;2.10;99.90;;;;;;5138134;27;20480;-62
2024/01/28 07:21:44;;;;;;;16.05;7.68;;;2.10;99.90;;;;;;5140753;27;20031;-62
2024/01/28 07:24:10;;;;;;;21.98;8.48;;;2.10;99.90;;;;;;5118586;27;20031;-62
2024/01/28 07:26:36;;;;;;;14.30;7.70;;;2.10;99.90;;;;;;5139055;27;20809;-61
2024/01/28 07:29:01;;;;;;;19.55;8.55;;;2.00;99.90;;;;;;5139089;27;20045;-61
2024/01/28 07:31:28;;;;;;;23.25;7.95;;;2.00;99.90;;;;;;5138917;27;20090;-62
2024/01/28 07:33:54;;;;;;;18.38;7.50;;;2.00;99.90;;;;;;5137367;27;20087;-62
2024/01/28 07:36:21;;;;;;;14.90;7.70;;;2.00;99.90;;;;;;5137389;27;20034;-62
2024/01/28 07:38:47;;;;;;;15.23;7.75;;;2.00;99.90;;;;;;5135936;27;20084;-62
2024/01/28 07:41:15;;;;;;;19.58;7.60;;;2.00;99.90;;;;;;5144000;27;20046;-62
2024/01/28 07:43:42;;;;;;;17.77;7.55;;;2.00;99.90;;;;;;5141138;27;20104;-62
2024/01/28 07:46:10;;;;;;;15.50;7.53;;;2.00;99.90;;;;;;5142173;27;20462;-62
2024/01/28 07:48:36;;;;;;;15.38;6.97;;;2.00;99.90;;;;;;5140915;27;20479;-62
2024/01/28 07:51:02;;;;;;;19.02;7.68;;;2.00;99.90;;;;;;5141310;27;20050;-61
2024/01/28 07:53:28;;;;;;;23.02;8.27;;;2.10;99.90;;;;;;5142479;27;20115;-61
2024/01/28 07:55:54;;;;;;;18.90;7.38;;;2.10;99.90;;;;;;5144167;27;20042;-61
2024/01/28 07:58:20;;;;;;;25.58;8.02;;;1.80;99.90;;;;;;5143371;27;20270;-61
2024/01/28 08:00:46;;;;;;;16.92;6.97;;;2.10;99.90;;;;;;5142132;27;20038;-61
2024/01/28 08:03:12;;;;;;;18.40;8.07;;;2.10;99.90;;;;;;5142259;27;20076;-61
2024/01/28 08:05:38;;;;;;;13.75;8.10;;;2.20;99.90;;;;;;5142708;27;20482;-61
2024/01/28 08:08:04;;;;;;;13.60;6.35;;;2.20;99.90;;;;;;5140075;27;20114;-61
2024/01/28 08:10:30;;;;;;;17.88;7.20;;;2.20;99.90;;;;;;5143349;27;20653;-61
2024/01/28 08:12:56;;;;;;;20.45;7.63;;;2.20;99.90;;;;;;5140381;27;20034;-61
2024/01/28 08:15:22;;;;;;;14.50;7.00;;;2.20;99.90;;;;;;5144145;27;20035;-61
2024/01/28 08:17:49;;;;;;;18.88;6.90;;;2.20;99.90;;;;;;5122390;27;20409;-61
2024/01/28 08:20:16;;;;;;;15.55;6.72;;;2.30;99.90;;;;;;5142033;27;20047;-61
2024/01/28 08:22:42;;;;;;;15.88;7.53;;;2.30;99.90;;;;;;5120102;27;20490;-61
2024/01/28 08:25:08;;;;;;;11.23;6.68;;;2.40;99.90;;;;;;5143280;27;20038;-61
2024/01/28 08:27:34;;;;;;;21.27;8.57;;;2.40;99.90;;;;;;5142010;27;20180;-61
2024/01/28 08:30:00;;;;;;;16.77;7.32;;;2.50;99.90;;;;;;5139691;27;20066;-61
2024/01/28 08:32:25;;;;;;;19.73;8.57;;;2.50;99.90;;;;;;5141304;27;20066;-61
2024/01/28 08:34:51;;;;;;;15.27;7.93;;;2.70;99.90;;;;;;5140665;27;20190;-61
2024/01/28 08:37:17;;;;;;;14.40;6.70;;;2.70;99.90;;;;;;5143926;27;20197;-62
2024/01/28 08:39:44;;;;;;;18.02;7.10;;;2.80;99.90;;;;;;5140065;27;20042;-62
2024/01/28 08:42:10;;;;;;;15.43;6.82;;;2.90;99.90;;;;;;5140117;27;20065;-62
2024/01/28 08:44:38;;;;;;;15.90;7.35;;;2.90;99.90;;;;;;5141232;27;20042;-62
2024/01/28 08:47:04;;;;;;;15.75;6.88;;;3.00;99.90;;;;;;5138553;27;20103;-62
2024/01/28 08:49:30;;;;;;;15.90;7.10;;;3.30;99.90;;;;;;5120654;27;20042;-62
2024/01/28 08:51:55;;;;;;;15.73;7.50;;;3.40;99.90;;;;;;5139380;27;20039;-62
2024/01/28 08:54:21;;;;;;;16.23;6.55;;;3.60;99.90;;;;;;5120871;27;20041;-62
2024/01/28 08:56:48;;;;;;;15.45;7.18;;;3.70;99.90;;;;;;5136500;27;20088;-62
2024/01/28 08:59:14;;;;;;;15.73;7.28;;;3.80;99.90;;;;;;5139165;27;20207;-62
2024/01/28 09:01:40;;;;;;;14.20;6.63;;;3.90;99.90;;;;;;5141478;27;20034;-63
2024/01/28 09:04:06;;;;;;;12.45;6.90;;;3.90;99.90;;;;;;5140373;27;20517;-63
2024/01/28 09:06:32;;;;;;;20.83;7.43;;;4.10;99.90;;;;;;5142651;27;20042;-62
2024/01/28 09:08:59;;;;;;;13.80;6.43;;;4.10;99.90;;;;;;5142942;27;20117;-62
2024/01/28 09:11:25;;;;;;;11.48;5.80;;;4.30;99.90;;;;;;5141757;27;20090;-62
2024/01/28 09:13:51;;;;;;;10.35;6.25;;;4.40;99.90;;;;;;5141022;27;20460;-62
2024/01/28 09:16:17;;;;;;;13.30;6.60;;;4.50;99.90;;;;;;5143087;27;20122;-61
2024/01/28 09:18:43;;;;;;;14.10;5.95;;;4.60;99.90;;;;;;5141789;27;20046;-62
2024/01/28 09:21:09;;;;;;;12.45;5.93;;;4.70;99.90;;;;;;5142271;27;20043;-62
2024/01/28 09:23:35;;;;;;;13.88;6.07;;;4.80;99.90;;;;;;5141782;27;20039;-62
2024/01/28 09:26:01;;;;;;;12.73;6.20;;;4.80;99.90;;;;;;5141300;27;20046;-62
2024/01/28 09:28:27;;;;;;;13.05;5.85;;;4.80;99.90;;;;;;5140557;27;20064;-63
2024/01/28 09:30:53;;;;;;;12.65;5.28;;;5.00;99.90;;;;;;5139141;27;20482;-63
2024/01/28 09:33:18;;;;;;;13.90;5.95;;;5.10;99.90;;;;;;5139369;27;20035;-63
2024/01/28 09:35:46;;;;;;;11.65;5.75;;;5.20;99.90;;;;;;5140675;27;20376;-63
2024/01/28 09:38:12;;;;;;;16.30;5.95;;;5.20;99.90;;;;;;5142581;27;20451;-63
2024/01/28 09:40:38;;;;;;;9.65;5.40;;;5.20;99.90;;;;;;5141239;27;20038;-62
2024/01/28 09:43:29;;;;;;;11.32;5.97;;;5.30;99.90;;;;;;5138984;27;20049;-63
2024/01/28 09:45:55;;;;;;;11.70;5.15;;;5.50;99.90;;;;;;5134904;27;20047;-64
2024/01/28 09:48:21;;;;;;;14.40;6.03;;;5.60;99.90;;;;;;5120297;27;20430;-63
2024/01/28 09:50:48;;;;;;;13.45;5.35;;;5.70;99.90;;;;;;5140564;27;20058;-63
2024/01/28 09:53:14;;;;;;;11.70;5.68;;;5.70;99.90;;;;;;5115983;27;20035;-63
2024/01/28 09:55:40;;;;;;;15.20;5.70;;;5.90;99.90;;;;;;5138004;27;20034;-64
2024/01/28 09:58:06;;;;;;;11.65;4.68;;;6.00;99.90;;;;;;5140124;27;20047;-63
2024/01/28 10:00:32;;;;;;;9.57;5.00;;;6.20;99.90;;;;;;5135749;27;20117;-63
2024/01/28 10:02:58;;;;;;;9.73;4.28;;;6.10;99.90;;;;;;5134846;27;20658;-64
2024/01/28 10:05:24;;;;;;;13.35;5.13;;;6.10;99.90;;;;;;5127510;27;20533;-62
2024/01/28 10:08:01;;;;;;;10.10;4.88;;;6.10;99.90;;;;;;5129726;27;20125;-62
2024/01/28 10:10:26;;;;;;;9.52;4.93;;;6.10;99.90;;;;;;5141087;27;20046;-63
2024/01/28 10:12:52;;;;;;;12.57;5.07;;;6.10;99.90;;;;;;5133909;27;20046;-63
2024/01/28 10:15:20;;;;;;;10.85;4.90;;;6.00;99.90;;;;;;5127937;27;20163;-63
2024/01/28 10:17:48;;;;;;;8.07;4.00;;;6.00;99.90;;;;;;5127633;27;20058;-63
2024/01/28 10:20:17;;;;;;;9.32;3.85;;;6.00;99.90;;;;;;5131179;27;20707;-63
2024/01/28 10:22:43;;;;;;;12.18;4.25;;;5.90;99.90;;;;;;5127405;27;20046;-63
2024/01/28 10:25:15;;;;;;;9.13;4.63;;;5.90;99.90;;;;;;5133591;27;20080;-63
2024/01/28 10:27:45;;;;;;;9.32;5.07;;;6.10;99.90;;;;;;5141152;27;20126;-62
2024/01/28 10:30:12;;;;;;;9.25;4.80;;;6.30;99.90;;;;;;5138681;27;20113;-63
2024/01/28 10:32:38;;;;;;;8.90;4.32;;;6.30;99.90;;;;;;5135989;27;20082;-64
2024/01/28 10:35:08;;;;;;;10.70;4.85;;;6.40;99.90;;;;;;5136264;27;20054;-63
2024/01/28 10:37:34;;;;;;;9.88;4.00;;;6.60;99.90;;;;;;5135770;27;20080;-63
2024/01/28 10:40:07;;;;;;;9.50;4.10;;;6.60;99.90;;;;;;5139904;27;20127;-63
2024/01/28 10:42:40;;;;;;;9.40;3.67;;;6.70;99.90;;;;;;5136615;27;20031;-62
2024/01/28 10:45:09;;;;;;;7.70;3.15;;;6.70;99.90;;;;;;5142036;27;20030;-62
2024/01/28 10:47:36;;;;;;;8.83;3.37;;;7.00;99.90;;;;;;5141547;27;20511;-66
2024/01/28 10:50:07;;;;;;;7.97;2.70;;;6.90;99.90;;;;;;5139057;27;20788;-62
2024/01/28 10:52:35;;;;;;;6.78;3.05;;;7.10;99.90;;;;;;5136689;27;20528;-63
2024/01/28 10:55:01;;;;;;;11.48;3.58;;;7.20;99.90;;;;;;5139800;27;20179;-62
2024/01/28 10:57:28;;;;;;;7.93;3.30;;;7.30;99.90;;;;;;5139172;27;20062;-62
2024/01/28 10:59:54;;;;;;;8.88;3.63;;;7.40;99.90;;;;;;5139444;27;20042;-63
2024/01/28 11:02:21;;;;;;;7.80;3.05;;;7.60;99.90;;;;;;5141805;27;20087;-63
2024/01/28 11:04:48;;;;;;;6.50;2.75;;;7.80;99.90;;;;;;5136884;27;20042;-62
2024/01/28 11:07:19;;;;;;;7.22;3.58;;;8.00;99.90;;;;;;5138762;27;20041;-63
2024/01/28 11:09:45;;;;;;;5.45;2.60;;;8.00;99.90;;;;;;5136346;27;20038;-63
2024/01/28 11:12:12;;;;;;;8.35;3.25;;;8.00;99.90;;;;;;5135255;27;20042;-61
2024/01/28 11:14:39;;;;;;;6.25;2.97;;;8.20;99.90;;;;;;5139551;27;20038;-63
2024/01/28 11:17:05;;;;;;;9.40;3.22;;;8.30;99.90;;;;;;5139421;27;20031;-63
2024/01/28 11:19:30;;;;;;;8.43;3.17;;;8.50;99.90;;;;;;5137075;27;20042;-63
2024/01/28 11:22:02;;;;;;;6.50;2.65;;;8.50;99.90;;;;;;5139211;27;20030;-62
2024/01/28 11:24:28;;;;;;;6.05;3.20;;;8.60;99.90;;;;;;5139986;27;20072;-62
2024/01/28 11:26:57;;;;;;;6.80;3.03;;;8.70;99.90;;;;;;5140578;27;20038;-63
2024/01/28 11:29:32;;;;;;;6.78;3.00;;;8.80;99.90;;;;;;5129256;27;20042;-61
2024/01/28 11:32:04;;;;;;;5.22;2.75;;;9.00;99.90;;;;;;5134503;27;20034;-62
2024/01/28 11:34:30;;;;;;;8.65;2.95;;;8.90;99.90;;;;;;5137059;27;20768;-61
2024/01/28 11:36:59;;;;;;;7.72;3.15;;;8.90;99.90;;;;;;5138708;27;20043;-62
2024/01/28 11:39:57;;;;;;;9.27;2.78;;;9.10;99.90;;;;;;5118648;27;20456;-63
2024/01/28 11:42:22;;;;;;;4.93;2.63;;;9.20;99.90;;;;;;5079735;27;20046;-63
2024/01/28 11:44:48;;;;;;;6.55;3.00;;;9.30;99.90;;;;;;5136599;27;20080;-63
2024/01/28 11:47:14;;;;;;;6.45;2.83;;;9.20;99.90;;;;;;5137065;27;20100;-62
2024/01/28 11:49:43;;;;;;;5.80;3.05;;;9.30;99.90;;;;;;5134233;27;20046;-63
2024/01/28 11:52:09;;;;;;;6.00;2.80;;;9.30;99.90;;;;;;5137406;27;20038;-63
2024/01/28 11:54:35;;;;;;;6.40;3.00;;;9.40;99.90;;;;;;5138754;27;20038;-63
2024/01/28 11:57:01;;;;;;;6.03;2.65;;;9.50;99.90;;;;;;5136036;27;20046;-63
2024/01/28 11:59:26;;;;;;;6.60;3.47;;;9.60;99.90;;;;;;5133662;27;20030;-63
2024/01/28 12:01:53;;;;;;;6.05;2.95;;;9.70;99.90;;;;;;5135462;27;20092;-63
2024/01/28 12:04:20;;;;;;;5.38;2.47;;;9.70;99.90;;;;;;5137771;27;20494;-63
2024/01/28 12:06:46;;;;;;;13.60;3.58;;;9.90;99.90;;;;;;5139308;27;20094;-63
2024/01/28 12:09:12;;;;;;;8.30;3.22;;;10.00;99.90;;;;;;5138934;27;20498;-62
2024/01/28 12:11:38;;;;;;;6.95;2.90;;;10.00;99.90;;;;;;5132316;27;20146;-63
2024/01/28 12:14:04;;;;;;;6.22;2.80;;;9.90;99.90;;;;;;5134825;27;20161;-62
2024/01/28 12:16:29;;;;;;;6.63;3.60;;;10.20;99.90;;;;;;5138784;27;20038;-63
2024/01/28 12:18:56;;;;;;;5.95;2.47;;;10.30;99.90;;;;;;5137429;27;20099;-63
2024/01/28 12:21:23;;;;;;;9.10;2.88;;;10.50;99.90;;;;;;5140099;27;20038;-62
2024/01/28 12:24:02;;;;;;;7.55;3.15;;;10.50;99.90;;;;;;5117683;27;20494;-62
2024/01/28 12:26:29;;;;;;;5.55;2.90;;;10.70;99.90;;;;;;5139465;27;20169;-63
2024/01/28 12:28:55;;;;;;;7.82;2.60;;;10.70;99.90;;;;;;5141363;27;20035;-63
2024/01/28 12:31:22;;;;;;;5.22;2.72;;;11.00;99.90;;;;;;5121696;27;20037;-63
2024/01/28 12:33:49;;;;;;;7.50;2.60;;;11.00;99.60;;;;;;5140447;27;20044;-63
2024/01/28 12:36:15;;;;;;;8.52;2.83;;;10.80;99.90;;;;;;5139445;27;20042;-63
2024/01/28 12:38:42;;;;;;;6.00;3.10;;;10.70;99.90;;;;;;5140098;27;20042;-63
2024/01/28 12:41:08;;;;;;;5.40;2.65;;;11.00;99.90;;;;;;5138840;27;20095;-63
2024/01/28 12:43:36;;;;;;;9.88;3.10;;;11.00;99.60;;;;;;5144598;27;20034;-62